| time (UTC) | temp F | wind direction | speed knots | gust knots | rain 1hr in | rain 24hr in | rain mn in | humidity % | barometer mb |
| 20260509134804 | 73 | 172 | 3.5 | 10.4 | 0.00 | 0.00 | 0.00 | 85 | 1010.0 |
| 20260509134305 | 73 | 158 | 6.1 | 10.4 | 0.00 | 0.00 | 0.00 | 85 | 1010.1 |
| 20260509133804 | 73 | 172 | 3.5 | 8.7 | 0.00 | 0.00 | 0.00 | 86 | 1010.2 |
| 20260509133305 | 72 | 162 | 6.1 | 11.3 | 0.00 | 0.00 | 0.00 | 86 | 1010.3 |
| 20260509131305 | 71 | 176 | 5.2 | 8.7 | 0.00 | 0.00 | 0.00 | 87 | 1010.4 |
| 20260509130305 | 71 | 186 | 2.6 | 5.2 | 0.00 | 0.00 | 0.00 | 87 | 1010.8 |
| 20260509124805 | 70 | 323 | 0.0 | 0.9 | 0.00 | 0.00 | 0.00 | 87 | 1010.9 |
| 20260509124304 | 70 | 323 | 0.0 | 0.9 | 0.00 | 0.00 | 0.00 | 87 | 1010.9 |
| 20260509123804 | 70 | 323 | 0.0 | 0.0 | 0.00 | 0.00 | 0.00 | 87 | 1010.8 |
| 20260509123305 | 70 | 323 | 0.9 | 2.6 | 0.00 | 0.00 | 0.00 | 87 | 1010.8 |
| 20260509121804 | 70 | 323 | 0.9 | 2.6 | 0.00 | 0.00 | 0.00 | 87 | 1010.7 |
| 20260509121305 | 70 | 323 | 0.9 | 1.7 | 0.00 | 0.00 | 0.00 | 87 | 1010.7 |
| 20260509120805 | 70 | 323 | 1.7 | 2.6 | 0.00 | 0.00 | 0.00 | 87 | 1010.8 |
| 20260509120304 | 70 | 323 | 0.0 | 2.6 | 0.00 | 0.00 | 0.00 | 87 | 1010.9 |
| 20260509114805 | 70 | 324 | 2.6 | 4.3 | 0.00 | 0.00 | 0.00 | 86 | 1011.1 |
| 20260509114304 | 70 | 27 | 0.9 | 1.7 | 0.00 | 0.00 | 0.00 | 86 | 1011.0 |
| 20260509113804 | 70 | 27 | 1.7 | 4.3 | 0.00 | 0.00 | 0.00 | 86 | 1011.0 |
| 20260509113305 | 70 | 355 | 0.9 | 1.7 | 0.00 | 0.00 | 0.00 | 86 | 1011.1 |
| 20260509111804 | 70 | 355 | 0.0 | 0.9 | 0.00 | 0.00 | 0.00 | 86 | 1011.6 |
| 20260509111305 | 70 | 355 | 1.7 | 2.6 | 0.00 | 0.00 | 0.00 | 86 | 1011.8 |
| 20260509110805 | 70 | 355 | 1.7 | 4.3 | 0.00 | 0.00 | 0.00 | 86 | 1011.9 |
| 20260509110305 | 71 | 13 | 1.7 | 4.3 | 0.00 | 0.00 | 0.00 | 86 | 1011.9 |
| 20260509104305 | 71 | 19 | 0.0 | 4.3 | 0.00 | 0.00 | 0.00 | 86 | 1011.9 |
| 20260509103805 | 71 | 355 | 2.6 | 4.3 | 0.00 | 0.00 | 0.00 | 86 | 1012.0 |
| 20260509103304 | 71 | 5 | 1.7 | 5.2 | 0.00 | 0.00 | 0.00 | 86 | 1011.9 |
| 20260509101804 | 71 | 359 | 1.7 | 4.3 | 0.00 | 0.00 | 0.00 | 86 | 1011.8 |
| 20260509101305 | 71 | 5 | 0.9 | 4.3 | 0.00 | 0.00 | 0.00 | 86 | 1011.6 |
| 20260509100805 | 71 | 343 | 2.6 | 4.3 | 0.00 | 0.00 | 0.00 | 86 | 1011.6 |
| 20260509100305 | 71 | 0 | 1.7 | 4.3 | 0.00 | 0.00 | 0.00 | 86 | 1011.4 |
| 20260509094804 | 71 | 169 | 0.0 | 0.0 | 0.00 | 0.00 | 0.00 | 86 | 1010.8 |
| 20260509094304 | 71 | 169 | 0.0 | 0.0 | 0.00 | 0.00 | 0.00 | 86 | 1010.6 |
| 20260509093305 | 71 | 169 | 0.0 | 0.9 | 0.00 | 0.00 | 0.00 | 86 | 1010.4 |
| 20260509091804 | 71 | 169 | 0.0 | 0.0 | 0.00 | 0.00 | 0.00 | 86 | 1010.4 |
| 20260509091305 | 71 | 169 | 0.0 | 0.9 | 0.00 | 0.00 | 0.00 | 86 | 1010.3 |
| 20260509090804 | 71 | 169 | 0.0 | 0.9 | 0.00 | 0.00 | 0.00 | 86 | 1010.4 |
| 20260509084805 | 71 | 169 | 0.0 | 0.0 | 0.00 | 0.00 | 0.00 | 85 | 1010.4 |
| 20260509084304 | 71 | 169 | 0.0 | 1.7 | 0.00 | 0.00 | 0.00 | 85 | 1010.5 |
| 20260509083805 | 71 | 169 | 0.9 | 1.7 | 0.00 | 0.00 | 0.00 | 85 | 1010.5 |
| 20260509083305 | 71 | 169 | 1.7 | 1.7 | 0.00 | 0.00 | 0.00 | 85 | 1010.6 |
| 20260509081804 | 71 | 169 | 0.9 | 1.7 | 0.00 | 0.00 | 0.00 | 85 | 1010.8 |
| 20260509081305 | 71 | 169 | 1.7 | 4.3 | 0.00 | 0.00 | 0.00 | 85 | 1010.9 |
| 20260509080804 | 71 | 169 | 0.0 | 0.9 | 0.00 | 0.00 | 0.00 | 85 | 1010.9 |
| 20260509074804 | 72 | 169 | 0.0 | 0.9 | 0.00 | 0.00 | 0.00 | 85 | 1011.0 |
| 20260509074304 | 72 | 169 | 0.0 | 1.7 | 0.00 | 0.00 | 0.00 | 85 | 1010.9 |
| 20260509073805 | 72 | 169 | 0.0 | 1.7 | 0.00 | 0.00 | 0.00 | 85 | 1010.8 |
| 20260509073305 | 72 | 169 | 0.0 | 4.3 | 0.00 | 0.00 | 0.00 | 85 | 1010.6 |
| 20260509071805 | 71 | 169 | 0.9 | 0.9 | 0.00 | 0.00 | 0.00 | 84 | 1011.2 |
| 20260509071304 | 71 | 169 | 0.0 | 1.7 | 0.00 | 0.00 | 0.00 | 84 | 1011.1 |
| 20260509070805 | 71 | 169 | 0.9 | 1.7 | 0.00 | 0.00 | 0.00 | 84 | 1011.2 |
| 20260509070305 | 71 | 169 | 0.0 | 1.7 | 0.00 | 0.00 | 0.00 | 84 | 1011.3 |
| 20260509064805 | 71 | 169 | 0.0 | 0.0 | 0.00 | 0.00 | 0.00 | 84 | 1011.0 |
| 20260509064305 | 71 | 169 | 0.0 | 0.0 | 0.00 | 0.00 | 0.00 | 84 | 1010.9 |
| 20260509063304 | 71 | 169 | 0.0 | 0.9 | 0.00 | 0.00 | 0.00 | 84 | 1010.9 |
| 20260509061804 | 71 | 169 | 0.0 | 0.9 | 0.00 | 0.00 | 0.00 | 84 | 1011.1 |
| 20260509061305 | 71 | 169 | 0.0 | 1.7 | 0.00 | 0.00 | 0.00 | 84 | 1011.0 |
| 20260509060804 | 71 | 169 | 0.9 | 5.2 | 0.00 | 0.00 | 0.00 | 84 | 1010.9 |
| 20260509054304 | 71 | 170 | 4.3 | 8.7 | 0.00 | 0.00 | 0.00 | 84 | 1010.6 |
| 20260509053804 | 71 | 179 | 5.2 | 8.7 | 0.00 | 0.00 | 0.00 | 84 | 1010.6 |
| 20260509053304 | 71 | 169 | 7.8 | 13.9 | 0.00 | 0.00 | 0.00 | 84 | 1010.5 |
| 20260509051804 | 70 | 161 | 9.6 | 14.8 | 0.00 | 0.00 | 0.00 | 84 | 1009.7 |
| 20260509051304 | 70 | 162 | 7.0 | 13.0 | 0.00 | 0.00 | 0.00 | 84 | 1009.7 |
| 20260509050305 | 71 | 151 | 9.6 | 13.9 | 0.00 | 0.00 | 0.00 | 83 | 1009.6 |
| 20260509044804 | 71 | 148 | 2.6 | 7.8 | 0.00 | 0.00 | 0.00 | 83 | 1009.7 |
| 20260509044304 | 71 | 133 | 1.7 | 5.2 | 0.00 | 0.00 | 0.00 | 82 | 1009.8 |
| 20260509043804 | 71 | 98 | 0.9 | 2.6 | 0.00 | 0.00 | 0.00 | 82 | 1009.8 |
| 20260509043304 | 71 | 98 | 2.6 | 5.2 | 0.00 | 0.00 | 0.00 | 82 | 1010.0 |
| 20260509041804 | 71 | 125 | 2.6 | 7.0 | 0.00 | 0.00 | 0.00 | 82 | 1010.3 |
| 20260509040804 | 71 | 136 | 2.6 | 7.0 | 0.00 | 0.00 | 0.00 | 82 | 1010.3 |
| 20260509034804 | 72 | 144 | 4.3 | 10.4 | 0.00 | 0.00 | 0.00 | 81 | 1010.2 |
| 20260509034304 | 72 | 160 | 4.3 | 11.3 | 0.00 | 0.00 | 0.00 | 81 | 1010.1 |
| 20260509033804 | 72 | 165 | 6.1 | 11.3 | 0.00 | 0.00 | 0.00 | 81 | 1010.0 |
| 20260509031804 | 72 | 157 | 5.2 | 10.4 | 0.00 | 0.00 | 0.00 | 81 | 1010.0 |
| 20260509030805 | 72 | 159 | 4.3 | 7.0 | 0.00 | 0.00 | 0.00 | 81 | 1010.0 |
| 20260509030304 | 72 | 153 | 4.3 | 7.0 | 0.00 | 0.00 | 0.00 | 80 | 1010.0 |
| 20260509024804 | 73 | 164 | 4.3 | 7.8 | 0.00 | 0.00 | 0.00 | 80 | 1009.8 |
| 20260509024304 | 73 | 166 | 4.3 | 7.8 | 0.00 | 0.00 | 0.00 | 79 | 1009.8 |
| 20260509023805 | 73 | 156 | 5.2 | 8.7 | 0.00 | 0.00 | 0.00 | 79 | 1009.7 |
| 20260509021304 | 74 | 160 | 6.1 | 11.3 | 0.00 | 0.00 | 0.00 | 78 | 1009.3 |
| 20260509020804 | 74 | 160 | 7.0 | 11.3 | 0.00 | 0.00 | 0.00 | 78 | 1009.2 |
| 20260509014804 | 74 | 161 | 8.7 | 13.0 | 0.00 | 0.00 | 0.00 | 77 | 1009.0 |
| 20260509014304 | 75 | 162 | 8.7 | 13.0 | 0.00 | 0.00 | 0.00 | 76 | 1009.0 |
| 20260509013804 | 75 | 161 | 7.8 | 13.9 | 0.00 | 0.00 | 0.00 | 76 | 1008.9 |
| 20260509013305 | 75 | 159 | 7.8 | 13.0 | 0.00 | 0.00 | 0.00 | 76 | 1008.7 |
| 20260509011804 | 75 | 166 | 7.8 | 13.0 | 0.00 | 0.00 | 0.00 | 75 | 1008.7 |
| 20260509011305 | 75 | 158 | 6.1 | 10.4 | 0.00 | 0.00 | 0.00 | 75 | 1008.7 |
| 20260509010804 | 76 | 159 | 7.8 | 12.2 | 0.00 | 0.00 | 0.00 | 75 | 1008.6 |
| 20260509010304 | 76 | 161 | 7.8 | 13.9 | 0.00 | 0.00 | 0.00 | 74 | 1008.6 |
| 20260509004804 | 76 | 164 | 7.0 | 12.2 | 0.00 | 0.00 | 0.00 | 74 | 1008.8 |
| 20260509004304 | 76 | 168 | 7.0 | 11.3 | 0.00 | 0.00 | 0.00 | 74 | 1008.8 |
| 20260509003804 | 76 | 159 | 6.1 | 10.4 | 0.00 | 0.00 | 0.00 | 74 | 1008.8 |
| 20260509003304 | 76 | 165 | 6.1 | 11.3 | 0.00 | 0.00 | 0.00 | 74 | 1008.8 |
| 20260509001804 | 76 | 162 | 6.1 | 11.3 | 0.00 | 0.00 | 0.00 | 74 | 1008.8 |
| 20260509001305 | 76 | 159 | 6.1 | 7.8 | 0.00 | 0.00 | 0.00 | 74 | 1008.9 |
| 20260509000804 | 76 | 144 | 4.3 | 7.0 | 0.00 | 0.00 | 0.00 | 73 | 1008.8 |
| 20260509000304 | 76 | 151 | 2.6 | 11.3 | 0.00 | 0.00 | 0.00 | 73 | 1008.9 |
| 20260508234804 | 76 | 151 | 4.3 | 10.4 | 0.00 | 0.00 | 0.00 | 73 | 1009.0 |
| 20260508234304 | 76 | 162 | 6.1 | 12.2 | 0.00 | 0.00 | 0.00 | 72 | 1009.0 |
| 20260508233804 | 76 | 161 | 6.1 | 12.2 | 0.00 | 0.00 | 0.00 | 72 | 1009.0 |
| 20260508233304 | 77 | 151 | 7.0 | 10.4 | 0.00 | 0.00 | 0.00 | 72 | 1008.9 |
| 20260508231804 | 77 | 143 | 7.0 | 10.4 | 0.00 | 0.00 | 0.00 | 71 | 1008.9 |
| 20260508230804 | 77 | 150 | 6.1 | 11.3 | 0.00 | 0.00 | 0.00 | 71 | 1008.9 |
| 20260508230304 | 77 | 152 | 8.7 | 13.0 | 0.00 | 0.00 | 0.00 | 71 | 1008.8 |
| 20260508224804 | 77 | 152 | 8.7 | 13.0 | 0.00 | 0.00 | 0.00 | 70 | 1008.9 |
| 20260508224304 | 77 | 151 | 7.8 | 12.2 | 0.00 | 0.00 | 0.00 | 70 | 1008.9 |
| 20260508223805 | 77 | 158 | 7.0 | 13.0 | 0.00 | 0.00 | 0.00 | 70 | 1008.8 |
| 20260508221804 | 78 | 154 | 7.8 | 13.0 | 0.00 | 0.00 | 0.00 | 69 | 1009.0 |
| 20260508221304 | 78 | 143 | 7.8 | 13.0 | 0.00 | 0.00 | 0.00 | 69 | 1008.9 |
| 20260508220804 | 78 | 151 | 7.8 | 13.0 | 0.00 | 0.00 | 0.00 | 69 | 1008.9 |
| 20260508220305 | 78 | 154 | 8.7 | 14.8 | 0.00 | 0.00 | 0.00 | 68 | 1009.0 |
| 20260508214804 | 78 | 150 | 6.1 | 11.3 | 0.00 | 0.00 | 0.00 | 69 | 1009.0 |
| 20260508214304 | 78 | 168 | 7.8 | 12.2 | 0.00 | 0.00 | 0.00 | 68 | 1009.1 |
| 20260508213304 | 78 | 154 | 6.1 | 12.2 | 0.00 | 0.00 | 0.00 | 68 | 1009.3 |
| 20260508211804 | 78 | 151 | 5.2 | 11.3 | 0.00 | 0.00 | 0.00 | 68 | 1009.4 |
| 20260508211304 | 78 | 160 | 7.0 | 12.2 | 0.00 | 0.00 | 0.00 | 68 | 1009.6 |
| 20260508210804 | 77 | 165 | 7.8 | 12.2 | 0.00 | 0.00 | 0.00 | 68 | 1009.7 |
| 20260508210304 | 77 | 158 | 5.2 | 12.2 | 0.00 | 0.00 | 0.00 | 68 | 1009.9 |
| 20260508204804 | 78 | 152 | 5.2 | 11.3 | 0.00 | 0.00 | 0.00 | 67 | 1010.0 |
| 20260508204304 | 78 | 164 | 8.7 | 14.8 | 0.00 | 0.00 | 0.00 | 66 | 1010.0 |
| 20260508203804 | 78 | 154 | 6.1 | 12.2 | 0.00 | 0.00 | 0.00 | 66 | 1010.1 |
| 20260508203304 | 78 | 151 | 5.2 | 11.3 | 0.00 | 0.00 | 0.00 | 67 | 1010.1 |
| 20260508201804 | 77 | 147 | 5.2 | 11.3 | 0.00 | 0.00 | 0.00 | 67 | 1010.5 |
| 20260508201304 | 77 | 155 | 5.2 | 13.0 | 0.00 | 0.00 | 0.00 | 67 | 1010.4 |
| 20260508200305 | 77 | 109 | 4.3 | 11.3 | 0.00 | 0.00 | 0.00 | 67 | 1010.6 |
| 20260508194804 | 77 | 139 | 4.3 | 7.8 | 0.00 | 0.00 | 0.00 | 67 | 1010.7 |
| 20260508193804 | 77 | 157 | 5.2 | 10.4 | 0.00 | 0.00 | 0.00 | 66 | 1010.7 |
| 20260508193304 | 78 | 114 | 4.3 | 11.3 | 0.00 | 0.00 | 0.00 | 67 | 1010.8 |
| 20260508191804 | 77 | 183 | 4.3 | 8.7 | 0.00 | 0.00 | 0.00 | 66 | 1011.2 |
| 20260508191304 | 78 | 193 | 2.6 | 5.2 | 0.00 | 0.00 | 0.00 | 65 | 1011.2 |
| 20260508190804 | 78 | 169 | 4.3 | 7.8 | 0.00 | 0.00 | 0.00 | 66 | 1011.2 |
| 20260508190304 | 78 | 193 | 2.6 | 7.0 | 0.00 | 0.00 | 0.00 | 66 | 1011.3 |
| 20260508184304 | 77 | 134 | 7.0 | 11.3 | 0.00 | 0.00 | 0.00 | 66 | 1011.4 |
| 20260508183804 | 77 | 163 | 5.2 | 8.7 | 0.00 | 0.00 | 0.00 | 66 | 1011.4 |
| 20260508183304 | 77 | 152 | 5.2 | 12.2 | 0.00 | 0.00 | 0.00 | 65 | 1011.6 |
| 20260508181804 | 80 | 126 | 2.6 | 7.8 | 0.00 | 0.00 | 0.00 | 61 | 1011.7 |
| 20260508181304 | 80 | 182 | 2.6 | 5.2 | 0.00 | 0.00 | 0.00 | 60 | 1011.8 |
| 20260508180804 | 80 | 0 | 1.7 | 2.6 | 0.00 | 0.00 | 0.00 | 60 | 1011.9 |
| 20260508180305 | 79 | 36 | 1.7 | 5.2 | 0.00 | 0.00 | 0.00 | 62 | 1011.9 |
| 20260508174805 | 76 | 315 | 1.7 | 5.2 | 0.00 | 0.00 | 0.00 | 64 | 1012.1 |
| 20260508174304 | 77 | 0 | 3.5 | 5.2 | 0.00 | 0.00 | 0.00 | 63 | 1012.3 |
| 20260508173804 | 76 | 328 | 1.7 | 5.2 | 0.00 | 0.00 | 0.00 | 65 | 1012.3 |
| 20260508173305 | 75 | 196 | 0.9 | 4.3 | 0.00 | 0.00 | 0.00 | 65 | 1012.5 |
| 20260508171804 | 74 | 306 | 2.6 | 4.3 | 0.00 | 0.00 | 0.00 | 67 | 1012.8 |
| 20260508171304 | 73 | 148 | 0.9 | 2.6 | 0.00 | 0.00 | 0.00 | 68 | 1012.9 |
| 20260508170304 | 72 | 31 | 0.9 | 7.0 | 0.00 | 0.00 | 0.00 | 69 | 1013.0 |
| 20260508164304 | 69 | 314 | 2.6 | 4.3 | 0.00 | 0.00 | 0.00 | 71 | 1013.3 |
| 20260508163804 | 69 | 335 | 1.7 | 4.3 | 0.00 | 0.00 | 0.00 | 71 | 1013.4 |
| 20260508163304 | 68 | 150 | 0.9 | 1.7 | 0.00 | 0.00 | 0.00 | 72 | 1013.6 |
| 20260508161804 | 68 | 150 | 0.0 | 2.6 | 0.00 | 0.01 | 0.00 | 72 | 1013.9 |
| 20260508161304 | 68 | 150 | 0.9 | 1.7 | 0.00 | 0.01 | 0.00 | 72 | 1013.9 |
| 20260508160804 | 68 | 150 | 0.0 | 1.7 | 0.00 | 0.01 | 0.00 | 72 | 1013.8 |
| 20260508160304 | 67 | 150 | 0.9 | 1.7 | 0.00 | 0.01 | 0.00 | 72 | 1013.8 |
| 20260508154804 | 66 | 150 | 0.0 | 0.9 | 0.00 | 0.01 | 0.00 | 74 | 1014.1 |
| 20260508154304 | 65 | 150 | 1.7 | 1.7 | 0.00 | 0.01 | 0.00 | 74 | 1014.2 |
| 20260508153804 | 65 | 150 | 1.7 | 2.6 | 0.00 | 0.01 | 0.00 | 74 | 1014.2 |
| 20260508153304 | 65 | 150 | 1.7 | 5.2 | 0.00 | 0.01 | 0.00 | 74 | 1014.2 |
| 20260508151804 | 65 | 156 | 3.5 | 7.8 | 0.00 | 0.01 | 0.00 | 75 | 1014.4 |
| 20260508151304 | 65 | 163 | 5.2 | 10.4 | 0.00 | 0.01 | 0.00 | 74 | 1014.3 |
| 20260508150804 | 65 | 160 | 2.6 | 7.8 | 0.00 | 0.01 | 0.00 | 75 | 1014.2 |
| 20260508150303 | 65 | 156 | 1.7 | 7.0 | 0.00 | 0.01 | 0.00 | 74 | 1014.1 |
| 20260508144304 | 65 | 154 | 1.7 | 4.3 | 0.00 | 0.01 | 0.00 | 74 | 1014.4 |
| 20260508143804 | 65 | 153 | 4.3 | 5.2 | 0.00 | 0.01 | 0.00 | 74 | 1014.3 |
| 20260508143304 | 65 | 157 | 1.7 | 7.0 | 0.00 | 0.01 | 0.00 | 75 | 1014.3 |
| 20260508141804 | 64 | 121 | 2.6 | 4.3 | 0.00 | 0.01 | 0.00 | 75 | 1014.1 |
| 20260508141304 | 64 | 119 | 0.9 | 4.3 | 0.00 | 0.01 | 0.00 | 76 | 1014.1 |
| 20260508140804 | 63 | 130 | 2.6 | 2.6 | 0.00 | 0.01 | 0.00 | 76 | 1014.1 |
| 20260508140305 | 63 | 92 | 2.6 | 5.2 | 0.00 | 0.01 | 0.00 | 76 | 1014.0 |